sensor_id;sensor_type;location;lat;lon;timestamp;P1;durP1;ratioP1;P2;durP2;ratioP2
62401;SDS011;48440;51.224;22.506;2022-12-10T00:01:40;19.73;;;11.85;;
62401;SDS011;48440;51.224;22.506;2022-12-10T00:04:06;18.73;;;12.02;;
62401;SDS011;48440;51.224;22.506;2022-12-10T00:06:33;19.20;;;10.82;;
62401;SDS011;48440;51.224;22.506;2022-12-10T00:09:01;18.17;;;10.63;;
62401;SDS011;48440;51.224;22.506;2022-12-10T00:11:28;19.23;;;10.85;;
62401;SDS011;48440;51.224;22.506;2022-12-10T00:13:54;16.73;;;10.77;;
62401;SDS011;48440;51.224;22.506;2022-12-10T00:16:21;17.88;;;10.43;;
62401;SDS011;48440;51.224;22.506;2022-12-10T00:18:48;16.40;;;10.40;;
62401;SDS011;48440;51.224;22.506;2022-12-10T00:21:16;16.25;;;9.90;;
62401;SDS011;48440;51.224;22.506;2022-12-10T00:23:44;17.38;;;10.40;;
62401;SDS011;48440;51.224;22.506;2022-12-10T00:26:17;14.15;;;9.10;;
62401;SDS011;48440;51.224;22.506;2022-12-10T00:28:45;15.02;;;9.70;;
62401;SDS011;48440;51.224;22.506;2022-12-10T00:31:12;15.05;;;9.25;;
62401;SDS011;48440;51.224;22.506;2022-12-10T00:33:43;13.70;;;8.80;;
62401;SDS011;48440;51.224;22.506;2022-12-10T00:36:11;13.10;;;8.60;;
62401;SDS011;48440;51.224;22.506;2022-12-10T00:38:39;13.82;;;8.63;;
62401;SDS011;48440;51.224;22.506;2022-12-10T00:41:06;11.15;;;7.95;;
62401;SDS011;48440;51.224;22.506;2022-12-10T00:43:31;15.27;;;9.55;;
62401;SDS011;48440;51.224;22.506;2022-12-10T00:45:57;11.80;;;8.38;;
62401;SDS011;48440;51.224;22.506;2022-12-10T00:48:23;13.75;;;8.95;;
62401;SDS011;48440;51.224;22.506;2022-12-10T00:51:02;15.40;;;9.23;;
62401;SDS011;48440;51.224;22.506;2022-12-10T00:53:35;16.13;;;8.85;;
62401;SDS011;48440;51.224;22.506;2022-12-10T00:56:02;13.52;;;8.85;;
62401;SDS011;48440;51.224;22.506;2022-12-10T00:58:31;13.52;;;9.10;;
62401;SDS011;48440;51.224;22.506;2022-12-10T01:03:36;15.25;;;9.35;;
62401;SDS011;48440;51.224;22.506;2022-12-10T01:08:48;13.70;;;8.48;;
62401;SDS011;48440;51.224;22.506;2022-12-10T01:11:16;13.05;;;9.23;;
62401;SDS011;48440;51.224;22.506;2022-12-10T01:13:43;13.48;;;8.68;;
62401;SDS011;48440;51.224;22.506;2022-12-10T01:16:10;12.95;;;9.00;;
62401;SDS011;48440;51.224;22.506;2022-12-10T01:18:38;13.27;;;8.48;;
62401;SDS011;48440;51.224;22.506;2022-12-10T01:21:05;14.00;;;8.20;;
62401;SDS011;48440;51.224;22.506;2022-12-10T01:23:36;13.27;;;9.13;;
62401;SDS011;48440;51.224;22.506;2022-12-10T01:26:03;14.50;;;8.65;;
62401;SDS011;48440;51.224;22.506;2022-12-10T01:28:31;13.98;;;8.60;;
62401;SDS011;48440;51.224;22.506;2022-12-10T01:31:02;16.42;;;9.70;;
62401;SDS011;48440;51.224;22.506;2022-12-10T01:33:29;15.00;;;8.90;;
62401;SDS011;48440;51.224;22.506;2022-12-10T01:35:55;13.40;;;8.60;;
62401;SDS011;48440;51.224;22.506;2022-12-10T01:38:21;12.32;;;7.97;;
62401;SDS011;48440;51.224;22.506;2022-12-10T01:40:47;11.35;;;8.05;;
62401;SDS011;48440;51.224;22.506;2022-12-10T01:43:13;13.75;;;8.52;;
62401;SDS011;48440;51.224;22.506;2022-12-10T01:45:39;12.90;;;8.85;;
62401;SDS011;48440;51.224;22.506;2022-12-10T01:48:05;12.63;;;8.30;;
62401;SDS011;48440;51.224;22.506;2022-12-10T01:50:31;13.75;;;8.48;;
62401;SDS011;48440;51.224;22.506;2022-12-10T01:52:56;12.85;;;8.68;;
62401;SDS011;48440;51.224;22.506;2022-12-10T01:55:36;13.52;;;8.20;;
62401;SDS011;48440;51.224;22.506;2022-12-10T01:58:14;12.98;;;7.88;;
62401;SDS011;48440;51.224;22.506;2022-12-10T02:00:43;14.07;;;8.50;;
62401;SDS011;48440;51.224;22.506;2022-12-10T02:03:19;11.90;;;8.05;;
62401;SDS011;48440;51.224;22.506;2022-12-10T02:05:55;14.60;;;8.20;;
62401;SDS011;48440;51.224;22.506;2022-12-10T02:08:33;13.45;;;8.52;;
62401;SDS011;48440;51.224;22.506;2022-12-10T02:14:12;12.93;;;8.65;;
62401;SDS011;48440;51.224;22.506;2022-12-10T02:17:00;11.75;;;7.93;;
62401;SDS011;48440;51.224;22.506;2022-12-10T02:19:38;13.02;;;8.27;;
62401;SDS011;48440;51.224;22.506;2022-12-10T02:22:19;11.40;;;7.30;;
62401;SDS011;48440;51.224;22.506;2022-12-10T02:24:48;13.52;;;8.07;;
62401;SDS011;48440;51.224;22.506;2022-12-10T02:29:55;13.43;;;9.20;;
62401;SDS011;48440;51.224;22.506;2022-12-10T02:32:25;12.43;;;7.95;;
62401;SDS011;48440;51.224;22.506;2022-12-10T02:34:57;12.40;;;7.95;;
62401;SDS011;48440;51.224;22.506;2022-12-10T02:37:30;12.38;;;7.97;;
62401;SDS011;48440;51.224;22.506;2022-12-10T02:39:59;14.27;;;8.77;;
62401;SDS011;48440;51.224;22.506;2022-12-10T02:42:31;12.35;;;8.15;;
62401;SDS011;48440;51.224;22.506;2022-12-10T02:45:00;11.77;;;7.95;;
62401;SDS011;48440;51.224;22.506;2022-12-10T02:47:26;12.63;;;8.15;;
62401;SDS011;48440;51.224;22.506;2022-12-10T02:49:53;13.55;;;7.82;;
62401;SDS011;48440;51.224;22.506;2022-12-10T02:52:22;14.07;;;9.50;;
62401;SDS011;48440;51.224;22.506;2022-12-10T02:54:49;15.57;;;9.75;;
62401;SDS011;48440;51.224;22.506;2022-12-10T03:05:17;16.40;;;9.50;;
62401;SDS011;48440;51.224;22.506;2022-12-10T03:07:55;15.93;;;10.07;;
62401;SDS011;48440;51.224;22.506;2022-12-10T03:10:33;13.82;;;9.07;;
62401;SDS011;48440;51.224;22.506;2022-12-10T03:13:10;16.27;;;9.82;;
62401;SDS011;48440;51.224;22.506;2022-12-10T03:15:39;16.25;;;9.13;;
62401;SDS011;48440;51.224;22.506;2022-12-10T03:18:07;16.70;;;9.63;;
62401;SDS011;48440;51.224;22.506;2022-12-10T03:20:39;16.30;;;9.95;;
62401;SDS011;48440;51.224;22.506;2022-12-10T03:23:09;13.98;;;7.95;;
62401;SDS011;48440;51.224;22.506;2022-12-10T03:25:38;17.63;;;9.15;;
62401;SDS011;48440;51.224;22.506;2022-12-10T03:28:04;15.02;;;8.38;;
62401;SDS011;48440;51.224;22.506;2022-12-10T03:30:32;15.50;;;8.85;;
62401;SDS011;48440;51.224;22.506;2022-12-10T03:32:58;17.95;;;9.35;;
62401;SDS011;48440;51.224;22.506;2022-12-10T03:35:25;14.18;;;8.20;;
62401;SDS011;48440;51.224;22.506;2022-12-10T03:37:51;12.63;;;8.05;;
62401;SDS011;48440;51.224;22.506;2022-12-10T03:40:18;13.60;;;8.10;;
62401;SDS011;48440;51.224;22.506;2022-12-10T03:42:49;15.75;;;8.98;;
62401;SDS011;48440;51.224;22.506;2022-12-10T03:45:15;14.13;;;8.30;;
62401;SDS011;48440;51.224;22.506;2022-12-10T03:47:41;14.18;;;8.50;;
62401;SDS011;48440;51.224;22.506;2022-12-10T03:50:07;14.15;;;8.60;;
62401;SDS011;48440;51.224;22.506;2022-12-10T03:52:34;12.38;;;7.97;;
62401;SDS011;48440;51.224;22.506;2022-12-10T03:55:00;12.45;;;7.85;;
62401;SDS011;48440;51.224;22.506;2022-12-10T03:57:25;12.57;;;7.82;;
62401;SDS011;48440;51.224;22.506;2022-12-10T03:59:52;12.30;;;8.07;;
62401;SDS011;48440;51.224;22.506;2022-12-10T04:02:18;13.07;;;7.63;;
62401;SDS011;48440;51.224;22.506;2022-12-10T04:04:43;12.38;;;7.53;;
62401;SDS011;48440;51.224;22.506;2022-12-10T04:07:09;11.45;;;7.43;;
62401;SDS011;48440;51.224;22.506;2022-12-10T04:09:34;12.95;;;7.82;;
62401;SDS011;48440;51.224;22.506;2022-12-10T04:12:00;13.05;;;8.13;;
62401;SDS011;48440;51.224;22.506;2022-12-10T04:14:28;10.52;;;7.38;;
62401;SDS011;48440;51.224;22.506;2022-12-10T04:17:12;12.45;;;8.15;;
62401;SDS011;48440;51.224;22.506;2022-12-10T04:19:38;12.57;;;7.43;;
62401;SDS011;48440;51.224;22.506;2022-12-10T04:22:04;11.68;;;8.20;;
62401;SDS011;48440;51.224;22.506;2022-12-10T04:24:48;12.73;;;8.15;;
62401;SDS011;48440;51.224;22.506;2022-12-10T04:29:59;11.90;;;7.78;;
62401;SDS011;48440;51.224;22.506;2022-12-10T04:32:26;12.75;;;7.97;;
62401;SDS011;48440;51.224;22.506;2022-12-10T04:34:53;12.05;;;7.35;;
62401;SDS011;48440;51.224;22.506;2022-12-10T04:37:19;12.32;;;7.20;;
62401;SDS011;48440;51.224;22.506;2022-12-10T04:39:45;12.27;;;7.28;;
62401;SDS011;48440;51.224;22.506;2022-12-10T04:42:11;12.27;;;7.88;;
62401;SDS011;48440;51.224;22.506;2022-12-10T04:44:37;11.85;;;7.72;;
62401;SDS011;48440;51.224;22.506;2022-12-10T04:47:04;13.35;;;8.07;;
62401;SDS011;48440;51.224;22.506;2022-12-10T04:49:31;13.52;;;7.75;;
62401;SDS011;48440;51.224;22.506;2022-12-10T04:51:56;12.52;;;7.95;;
62401;SDS011;48440;51.224;22.506;2022-12-10T04:54:22;13.70;;;9.02;;
62401;SDS011;48440;51.224;22.506;2022-12-10T04:56:48;15.20;;;9.10;;
62401;SDS011;48440;51.224;22.506;2022-12-10T04:59:14;15.50;;;8.32;;
62401;SDS011;48440;51.224;22.506;2022-12-10T05:01:39;15.18;;;8.90;;
62401;SDS011;48440;51.224;22.506;2022-12-10T05:04:06;14.00;;;8.73;;
62401;SDS011;48440;51.224;22.506;2022-12-10T05:06:33;13.52;;;8.60;;
62401;SDS011;48440;51.224;22.506;2022-12-10T05:08:59;13.68;;;8.20;;
62401;SDS011;48440;51.224;22.506;2022-12-10T05:11:26;15.95;;;9.25;;
62401;SDS011;48440;51.224;22.506;2022-12-10T05:13:53;12.77;;;8.52;;
62401;SDS011;48440;51.224;22.506;2022-12-10T05:16:20;15.43;;;9.00;;
62401;SDS011;48440;51.224;22.506;2022-12-10T05:18:46;14.50;;;9.18;;
62401;SDS011;48440;51.224;22.506;2022-12-10T05:21:14;17.85;;;10.45;;
62401;SDS011;48440;51.224;22.506;2022-12-10T05:23:43;14.52;;;9.25;;
62401;SDS011;48440;51.224;22.506;2022-12-10T05:26:12;14.70;;;9.48;;
62401;SDS011;48440;51.224;22.506;2022-12-10T05:28:43;16.40;;;10.15;;
62401;SDS011;48440;51.224;22.506;2022-12-10T05:31:14;15.25;;;9.35;;
62401;SDS011;48440;51.224;22.506;2022-12-10T05:33:42;16.70;;;9.45;;
62401;SDS011;48440;51.224;22.506;2022-12-10T05:36:09;14.73;;;8.85;;
62401;SDS011;48440;51.224;22.506;2022-12-10T05:38:36;15.65;;;9.30;;
62401;SDS011;48440;51.224;22.506;2022-12-10T05:41:04;16.50;;;9.63;;
62401;SDS011;48440;51.224;22.506;2022-12-10T05:43:31;15.90;;;9.27;;
62401;SDS011;48440;51.224;22.506;2022-12-10T05:46:07;17.08;;;9.63;;
62401;SDS011;48440;51.224;22.506;2022-12-10T05:48:36;17.00;;;9.90;;
62401;SDS011;48440;51.224;22.506;2022-12-10T05:51:06;18.25;;;9.63;;
62401;SDS011;48440;51.224;22.506;2022-12-10T05:53:33;16.33;;;9.85;;
62401;SDS011;48440;51.224;22.506;2022-12-10T05:55:59;17.05;;;10.23;;
62401;SDS011;48440;51.224;22.506;2022-12-10T05:58:28;17.77;;;9.80;;
62401;SDS011;48440;51.224;22.506;2022-12-10T06:00:55;16.27;;;9.48;;
62401;SDS011;48440;51.224;22.506;2022-12-10T06:03:21;18.35;;;11.07;;
62401;SDS011;48440;51.224;22.506;2022-12-10T06:05:47;21.10;;;11.02;;
62401;SDS011;48440;51.224;22.506;2022-12-10T06:08:12;16.00;;;10.40;;
62401;SDS011;48440;51.224;22.506;2022-12-10T06:10:38;17.63;;;10.73;;
62401;SDS011;48440;51.224;22.506;2022-12-10T06:13:03;19.55;;;10.23;;
62401;SDS011;48440;51.224;22.506;2022-12-10T06:15:29;18.25;;;10.98;;
62401;SDS011;48440;51.224;22.506;2022-12-10T06:17:56;19.00;;;10.80;;
62401;SDS011;48440;51.224;22.506;2022-12-10T06:20:22;19.02;;;11.15;;
62401;SDS011;48440;51.224;22.506;2022-12-10T06:22:48;19.88;;;11.38;;
62401;SDS011;48440;51.224;22.506;2022-12-10T06:25:14;18.88;;;10.60;;
62401;SDS011;48440;51.224;22.506;2022-12-10T06:27:40;21.80;;;11.35;;
62401;SDS011;48440;51.224;22.506;2022-12-10T06:30:05;18.73;;;10.93;;
62401;SDS011;48440;51.224;22.506;2022-12-10T06:32:31;22.45;;;11.85;;
62401;SDS011;48440;51.224;22.506;2022-12-10T06:34:57;24.67;;;12.23;;
62401;SDS011;48440;51.224;22.506;2022-12-10T06:37:22;22.98;;;12.23;;
62401;SDS011;48440;51.224;22.506;2022-12-10T06:39:50;20.75;;;11.75;;
62401;SDS011;48440;51.224;22.506;2022-12-10T06:42:18;24.08;;;11.43;;
62401;SDS011;48440;51.224;22.506;2022-12-10T06:44:44;23.65;;;11.25;;
62401;SDS011;48440;51.224;22.506;2022-12-10T06:47:09;21.77;;;11.88;;
62401;SDS011;48440;51.224;22.506;2022-12-10T06:49:35;19.92;;;11.70;;
62401;SDS011;48440;51.224;22.506;2022-12-10T06:52:01;24.40;;;12.82;;
62401;SDS011;48440;51.224;22.506;2022-12-10T06:54:28;23.38;;;12.02;;
62401;SDS011;48440;51.224;22.506;2022-12-10T06:56:54;24.23;;;12.00;;
62401;SDS011;48440;51.224;22.506;2022-12-10T06:59:19;21.90;;;11.73;;
62401;SDS011;48440;51.224;22.506;2022-12-10T07:01:45;22.60;;;12.57;;
62401;SDS011;48440;51.224;22.506;2022-12-10T07:04:12;24.10;;;13.30;;
62401;SDS011;48440;51.224;22.506;2022-12-10T07:06:38;25.88;;;13.13;;
62401;SDS011;48440;51.224;22.506;2022-12-10T07:09:04;21.65;;;12.23;;
62401;SDS011;48440;51.224;22.506;2022-12-10T07:11:29;25.08;;;13.77;;
62401;SDS011;48440;51.224;22.506;2022-12-10T07:13:56;20.85;;;11.15;;
62401;SDS011;48440;51.224;22.506;2022-12-10T07:16:25;22.15;;;11.93;;
62401;SDS011;48440;51.224;22.506;2022-12-10T07:18:53;24.98;;;12.15;;
62401;SDS011;48440;51.224;22.506;2022-12-10T07:21:20;24.27;;;12.02;;
62401;SDS011;48440;51.224;22.506;2022-12-10T07:23:46;21.92;;;11.00;;
62401;SDS011;48440;51.224;22.506;2022-12-10T07:26:12;21.40;;;11.45;;
62401;SDS011;48440;51.224;22.506;2022-12-10T07:28:38;23.33;;;11.95;;
62401;SDS011;48440;51.224;22.506;2022-12-10T07:31:04;21.05;;;11.98;;
62401;SDS011;48440;51.224;22.506;2022-12-10T07:33:31;21.92;;;11.75;;
62401;SDS011;48440;51.224;22.506;2022-12-10T07:35:57;21.95;;;11.90;;
62401;SDS011;48440;51.224;22.506;2022-12-10T07:38:23;21.13;;;12.00;;
62401;SDS011;48440;51.224;22.506;2022-12-10T07:40:49;23.65;;;12.00;;
62401;SDS011;48440;51.224;22.506;2022-12-10T07:43:15;24.75;;;12.73;;
62401;SDS011;48440;51.224;22.506;2022-12-10T07:45:41;22.83;;;12.68;;
62401;SDS011;48440;51.224;22.506;2022-12-10T07:48:07;23.75;;;13.07;;
62401;SDS011;48440;51.224;22.506;2022-12-10T07:50:32;26.92;;;13.85;;
62401;SDS011;48440;51.224;22.506;2022-12-10T07:52:59;24.30;;;13.20;;
62401;SDS011;48440;51.224;22.506;2022-12-10T07:55:25;23.63;;;13.43;;
62401;SDS011;48440;51.224;22.506;2022-12-10T07:57:50;25.38;;;13.90;;
62401;SDS011;48440;51.224;22.506;2022-12-10T08:00:16;25.77;;;13.32;;
62401;SDS011;48440;51.224;22.506;2022-12-10T08:02:41;29.30;;;13.98;;
62401;SDS011;48440;51.224;22.506;2022-12-10T08:05:07;28.83;;;14.18;;
62401;SDS011;48440;51.224;22.506;2022-12-10T08:07:33;27.08;;;13.95;;
62401;SDS011;48440;51.224;22.506;2022-12-10T08:09:59;30.30;;;15.52;;
62401;SDS011;48440;51.224;22.506;2022-12-10T08:12:24;28.00;;;14.63;;
62401;SDS011;48440;51.224;22.506;2022-12-10T08:14:50;27.15;;;14.68;;
62401;SDS011;48440;51.224;22.506;2022-12-10T08:17:15;30.27;;;15.35;;
62401;SDS011;48440;51.224;22.506;2022-12-10T08:19:41;29.02;;;15.00;;
62401;SDS011;48440;51.224;22.506;2022-12-10T08:22:06;29.42;;;14.25;;
62401;SDS011;48440;51.224;22.506;2022-12-10T08:24:32;29.88;;;13.55;;
62401;SDS011;48440;51.224;22.506;2022-12-10T08:26:57;28.02;;;14.52;;
62401;SDS011;48440;51.224;22.506;2022-12-10T08:29:23;27.20;;;13.38;;
62401;SDS011;48440;51.224;22.506;2022-12-10T08:31:48;29.35;;;15.68;;
62401;SDS011;48440;51.224;22.506;2022-12-10T08:34:15;29.85;;;14.50;;
62401;SDS011;48440;51.224;22.506;2022-12-10T08:36:42;28.55;;;14.80;;
62401;SDS011;48440;51.224;22.506;2022-12-10T08:39:08;32.20;;;15.45;;
62401;SDS011;48440;51.224;22.506;2022-12-10T08:41:41;32.55;;;14.70;;
62401;SDS011;48440;51.224;22.506;2022-12-10T08:44:08;25.50;;;14.77;;
62401;SDS011;48440;51.224;22.506;2022-12-10T08:46:34;25.35;;;13.48;;
62401;SDS011;48440;51.224;22.506;2022-12-10T08:48:59;27.05;;;13.25;;
62401;SDS011;48440;51.224;22.506;2022-12-10T08:51:25;25.40;;;13.30;;
62401;SDS011;48440;51.224;22.506;2022-12-10T08:53:52;28.30;;;14.15;;
62401;SDS011;48440;51.224;22.506;2022-12-10T08:56:18;31.00;;;14.38;;
62401;SDS011;48440;51.224;22.506;2022-12-10T08:58:44;26.63;;;13.85;;
62401;SDS011;48440;51.224;22.506;2022-12-10T09:01:10;26.27;;;13.77;;
62401;SDS011;48440;51.224;22.506;2022-12-10T09:03:37;25.55;;;13.13;;
62401;SDS011;48440;51.224;22.506;2022-12-10T09:06:04;23.88;;;13.20;;
62401;SDS011;48440;51.224;22.506;2022-12-10T09:08:32;25.60;;;12.55;;
62401;SDS011;48440;51.224;22.506;2022-12-10T09:10:58;25.42;;;13.38;;
62401;SDS011;48440;51.224;22.506;2022-12-10T09:13:28;27.25;;;13.07;;
62401;SDS011;48440;51.224;22.506;2022-12-10T09:15:54;24.77;;;11.98;;
62401;SDS011;48440;51.224;22.506;2022-12-10T09:18:19;24.55;;;13.00;;
62401;SDS011;48440;51.224;22.506;2022-12-10T09:20:45;22.52;;;11.65;;
62401;SDS011;48440;51.224;22.506;2022-12-10T09:23:10;21.17;;;11.88;;
62401;SDS011;48440;51.224;22.506;2022-12-10T09:25:36;24.25;;;12.38;;
62401;SDS011;48440;51.224;22.506;2022-12-10T09:28:01;25.70;;;13.23;;
62401;SDS011;48440;51.224;22.506;2022-12-10T09:30:27;23.85;;;12.30;;
62401;SDS011;48440;51.224;22.506;2022-12-10T09:32:52;23.58;;;12.80;;
62401;SDS011;48440;51.224;22.506;2022-12-10T09:35:18;23.92;;;12.02;;
62401;SDS011;48440;51.224;22.506;2022-12-10T09:37:43;21.38;;;10.63;;
62401;SDS011;48440;51.224;22.506;2022-12-10T09:40:18;21.08;;;11.35;;
62401;SDS011;48440;51.224;22.506;2022-12-10T09:42:56;21.98;;;11.95;;
62401;SDS011;48440;51.224;22.506;2022-12-10T09:45:32;23.33;;;11.68;;
62401;SDS011;48440;51.224;22.506;2022-12-10T09:53:21;26.48;;;12.95;;
62401;SDS011;48440;51.224;22.506;2022-12-10T09:55:49;24.75;;;13.25;;
62401;SDS011;48440;51.224;22.506;2022-12-10T09:58:22;28.98;;;13.57;;
62401;SDS011;48440;51.224;22.506;2022-12-10T10:00:51;26.90;;;12.90;;
62401;SDS011;48440;51.224;22.506;2022-12-10T10:03:22;27.10;;;13.40;;
62401;SDS011;48440;51.224;22.506;2022-12-10T10:05:49;26.35;;;13.60;;
62401;SDS011;48440;51.224;22.506;2022-12-10T10:10:54;28.60;;;14.55;;
62401;SDS011;48440;51.224;22.506;2022-12-10T10:13:31;31.63;;;13.93;;
62401;SDS011;48440;51.224;22.506;2022-12-10T10:21:34;33.92;;;13.68;;
62401;SDS011;48440;51.224;22.506;2022-12-10T10:24:03;29.15;;;13.55;;
62401;SDS011;48440;51.224;22.506;2022-12-10T10:26:30;24.88;;;12.02;;
62401;SDS011;48440;51.224;22.506;2022-12-10T10:28:57;27.27;;;13.20;;
62401;SDS011;48440;51.224;22.506;2022-12-10T10:31:26;29.25;;;13.73;;
62401;SDS011;48440;51.224;22.506;2022-12-10T10:33:58;27.60;;;13.88;;
62401;SDS011;48440;51.224;22.506;2022-12-10T10:36:30;28.33;;;13.68;;
62401;SDS011;48440;51.224;22.506;2022-12-10T10:38:56;27.25;;;13.40;;
62401;SDS011;48440;51.224;22.506;2022-12-10T10:41:34;23.48;;;13.40;;
62401;SDS011;48440;51.224;22.506;2022-12-10T10:44:04;27.00;;;13.70;;
62401;SDS011;48440;51.224;22.506;2022-12-10T10:46:41;24.90;;;12.93;;
62401;SDS011;48440;51.224;22.506;2022-12-10T10:49:26;27.85;;;13.05;;
62401;SDS011;48440;51.224;22.506;2022-12-10T10:51:58;28.35;;;14.05;;
62401;SDS011;48440;51.224;22.506;2022-12-10T10:54:33;26.67;;;13.77;;
62401;SDS011;48440;51.224;22.506;2022-12-10T10:57:22;25.40;;;12.77;;
62401;SDS011;48440;51.224;22.506;2022-12-10T11:00:40;24.15;;;12.73;;
62401;SDS011;48440;51.224;22.506;2022-12-10T11:02:47;27.95;;;12.88;;
62401;SDS011;48440;51.224;22.506;2022-12-10T11:05:17;25.50;;;13.02;;
62401;SDS011;48440;51.224;22.506;2022-12-10T11:07:56;24.50;;;13.10;;
62401;SDS011;48440;51.224;22.506;2022-12-10T11:10:25;32.75;;;13.88;;
62401;SDS011;48440;51.224;22.506;2022-12-10T11:12:58;27.88;;;13.52;;
62401;SDS011;48440;51.224;22.506;2022-12-10T11:15:31;28.08;;;12.68;;
62401;SDS011;48440;51.224;22.506;2022-12-10T11:18:01;23.80;;;12.98;;
62401;SDS011;48440;51.224;22.506;2022-12-10T11:20:32;27.48;;;13.05;;
62401;SDS011;48440;51.224;22.506;2022-12-10T11:23:00;28.00;;;13.23;;
62401;SDS011;48440;51.224;22.506;2022-12-10T11:28:00;22.75;;;10.88;;
62401;SDS011;48440;51.224;22.506;2022-12-10T11:30:37;20.60;;;10.63;;
62401;SDS011;48440;51.224;22.506;2022-12-10T11:36:04;19.98;;;10.35;;
62401;SDS011;48440;51.224;22.506;2022-12-10T11:41:26;25.65;;;12.25;;
62401;SDS011;48440;51.224;22.506;2022-12-10T11:46:57;23.02;;;11.45;;
62401;SDS011;48440;51.224;22.506;2022-12-10T12:00:43;23.67;;;11.90;;
62401;SDS011;48440;51.224;22.506;2022-12-10T12:03:24;22.70;;;11.98;;
62401;SDS011;48440;51.224;22.506;2022-12-10T12:07:12;21.67;;;11.77;;
62401;SDS011;48440;51.224;22.506;2022-12-10T12:09:25;22.15;;;11.07;;
62401;SDS011;48440;51.224;22.506;2022-12-10T12:14:34;26.48;;;13.88;;
62401;SDS011;48440;51.224;22.506;2022-12-10T12:17:30;18.23;;;11.02;;
62401;SDS011;48440;51.224;22.506;2022-12-10T12:20:02;21.10;;;12.18;;
62401;SDS011;48440;51.224;22.506;2022-12-10T12:22:38;22.13;;;11.48;;
62401;SDS011;48440;51.224;22.506;2022-12-10T12:25:22;20.85;;;11.48;;
62401;SDS011;48440;51.224;22.506;2022-12-10T12:28:35;20.38;;;10.25;;
62401;SDS011;48440;51.224;22.506;2022-12-10T12:31:25;17.83;;;9.40;;
62401;SDS011;48440;51.224;22.506;2022-12-10T12:36:41;23.27;;;11.18;;
62401;SDS011;48440;51.224;22.506;2022-12-10T12:44:56;22.77;;;11.20;;
62401;SDS011;48440;51.224;22.506;2022-12-10T12:47:46;19.02;;;10.45;;
62401;SDS011;48440;51.224;22.506;2022-12-10T12:52:57;21.50;;;11.20;;
62401;SDS011;48440;51.224;22.506;2022-12-10T12:58:20;24.90;;;12.38;;
62401;SDS011;48440;51.224;22.506;2022-12-10T13:04:09;22.48;;;11.60;;
62401;SDS011;48440;51.224;22.506;2022-12-10T13:06:37;23.38;;;12.15;;
62401;SDS011;48440;51.224;22.506;2022-12-10T13:14:32;28.48;;;12.05;;
62401;SDS011;48440;51.224;22.506;2022-12-10T13:17:00;22.83;;;12.18;;
62401;SDS011;48440;51.224;22.506;2022-12-10T13:19:32;26.65;;;13.02;;
62401;SDS011;48440;51.224;22.506;2022-12-10T13:35:41;22.08;;;11.60;;
62401;SDS011;48440;51.224;22.506;2022-12-10T13:37:53;25.52;;;12.02;;
62401;SDS011;48440;51.224;22.506;2022-12-10T13:43:23;23.05;;;11.25;;
62401;SDS011;48440;51.224;22.506;2022-12-10T13:46:21;24.30;;;12.30;;
62401;SDS011;48440;51.224;22.506;2022-12-10T13:49:16;22.25;;;11.43;;
62401;SDS011;48440;51.224;22.506;2022-12-10T13:54:38;22.98;;;11.68;;
62401;SDS011;48440;51.224;22.506;2022-12-10T14:05:23;25.55;;;12.50;;
62401;SDS011;48440;51.224;22.506;2022-12-10T14:08:06;26.25;;;12.40;;
62401;SDS011;48440;51.224;22.506;2022-12-10T14:10:40;24.05;;;12.35;;
62401;SDS011;48440;51.224;22.506;2022-12-10T14:13:06;26.83;;;13.30;;
62401;SDS011;48440;51.224;22.506;2022-12-10T14:15:33;24.45;;;12.48;;
62401;SDS011;48440;51.224;22.506;2022-12-10T14:18:04;24.90;;;12.80;;
62401;SDS011;48440;51.224;22.506;2022-12-10T14:20:35;27.08;;;12.00;;
62401;SDS011;48440;51.224;22.506;2022-12-10T14:23:05;25.08;;;12.07;;
62401;SDS011;48440;51.224;22.506;2022-12-10T14:26:04;26.13;;;11.80;;
62401;SDS011;48440;51.224;22.506;2022-12-10T14:28:49;26.23;;;13.05;;
62401;SDS011;48440;51.224;22.506;2022-12-10T14:31:24;29.15;;;13.65;;
62401;SDS011;48440;51.224;22.506;2022-12-10T14:33:55;33.13;;;14.98;;
62401;SDS011;48440;51.224;22.506;2022-12-10T14:36:27;36.45;;;15.07;;
62401;SDS011;48440;51.224;22.506;2022-12-10T14:38:55;33.08;;;15.15;;
62401;SDS011;48440;51.224;22.506;2022-12-10T14:41:22;33.53;;;15.10;;
62401;SDS011;48440;51.224;22.506;2022-12-10T14:43:49;37.22;;;16.40;;
62401;SDS011;48440;51.224;22.506;2022-12-10T14:46:20;31.77;;;15.57;;
62401;SDS011;48440;51.224;22.506;2022-12-10T14:48:49;33.97;;;16.10;;
62401;SDS011;48440;51.224;22.506;2022-12-10T14:51:20;35.30;;;14.45;;
62401;SDS011;48440;51.224;22.506;2022-12-10T14:53:49;32.60;;;14.13;;
62401;SDS011;48440;51.224;22.506;2022-12-10T14:56:37;26.77;;;12.35;;
62401;SDS011;48440;51.224;22.506;2022-12-10T14:59:08;26.20;;;11.50;;
62401;SDS011;48440;51.224;22.506;2022-12-10T15:01:46;20.42;;;10.35;;
62401;SDS011;48440;51.224;22.506;2022-12-10T15:04:16;23.83;;;11.98;;
62401;SDS011;48440;51.224;22.506;2022-12-10T15:06:43;24.40;;;11.52;;
62401;SDS011;48440;51.224;22.506;2022-12-10T15:09:19;26.25;;;11.23;;
62401;SDS011;48440;51.224;22.506;2022-12-10T15:11:56;24.35;;;11.38;;
62401;SDS011;48440;51.224;22.506;2022-12-10T15:14:24;26.95;;;11.93;;
62401;SDS011;48440;51.224;22.506;2022-12-10T15:16:52;24.67;;;12.48;;
62401;SDS011;48440;51.224;22.506;2022-12-10T15:19:24;27.65;;;12.30;;
62401;SDS011;48440;51.224;22.506;2022-12-10T15:21:50;27.67;;;12.40;;
62401;SDS011;48440;51.224;22.506;2022-12-10T15:24:18;29.00;;;12.65;;
62401;SDS011;48440;51.224;22.506;2022-12-10T15:26:45;31.88;;;13.88;;
62401;SDS011;48440;51.224;22.506;2022-12-10T15:31:54;31.15;;;13.00;;
62401;SDS011;48440;51.224;22.506;2022-12-10T15:34:21;27.33;;;13.05;;
62401;SDS011;48440;51.224;22.506;2022-12-10T15:36:53;26.25;;;11.30;;
62401;SDS011;48440;51.224;22.506;2022-12-10T15:39:26;24.27;;;10.63;;
62401;SDS011;48440;51.224;22.506;2022-12-10T15:41:55;27.30;;;11.20;;
62401;SDS011;48440;51.224;22.506;2022-12-10T15:47:09;23.23;;;10.85;;
62401;SDS011;48440;51.224;22.506;2022-12-10T15:49:55;25.00;;;11.00;;
62401;SDS011;48440;51.224;22.506;2022-12-10T15:52:28;22.75;;;10.90;;
62401;SDS011;48440;51.224;22.506;2022-12-10T15:54:56;29.45;;;11.50;;
62401;SDS011;48440;51.224;22.506;2022-12-10T15:57:24;26.42;;;11.50;;
62401;SDS011;48440;51.224;22.506;2022-12-10T15:59:58;26.65;;;11.93;;
62401;SDS011;48440;51.224;22.506;2022-12-10T16:05:00;25.30;;;12.15;;
62401;SDS011;48440;51.224;22.506;2022-12-10T16:07:25;27.50;;;12.45;;
62401;SDS011;48440;51.224;22.506;2022-12-10T16:09:51;24.33;;;11.85;;
62401;SDS011;48440;51.224;22.506;2022-12-10T16:12:16;30.23;;;12.98;;
62401;SDS011;48440;51.224;22.506;2022-12-10T16:14:53;28.35;;;12.88;;
62401;SDS011;48440;51.224;22.506;2022-12-10T16:17:28;32.00;;;13.55;;
62401;SDS011;48440;51.224;22.506;2022-12-10T16:20:09;25.98;;;12.70;;
62401;SDS011;48440;51.224;22.506;2022-12-10T16:22:42;25.90;;;12.57;;
62401;SDS011;48440;51.224;22.506;2022-12-10T16:25:08;22.40;;;10.85;;
62401;SDS011;48440;51.224;22.506;2022-12-10T16:27:33;19.73;;;8.70;;